createdAt,value
2022-09-03T00:00:52.412Z,1.60
2022-09-03T00:03:27.977Z,1.70
2022-09-03T00:06:01.705Z,1.15
2022-09-03T00:08:55.472Z,1.63
2022-09-03T00:11:52.689Z,1.70
2022-09-03T00:14:34.307Z,1.60
2022-09-03T00:17:09.389Z,1.83
2022-09-03T00:19:44.431Z,1.30
2022-09-03T00:22:21.677Z,1.40
2022-09-03T00:24:50.184Z,1.38
2022-09-03T00:27:21.323Z,1.52
2022-09-03T00:30:03.580Z,1.67
2022-09-03T00:32:40.700Z,1.30
2022-09-03T00:35:15.403Z,1.50
2022-09-03T00:37:42.517Z,1.60
2022-09-03T00:40:21.263Z,1.35
2022-09-03T00:43:07.334Z,1.55
2022-09-03T00:45:50.143Z,1.42
2022-09-03T00:48:27.896Z,1.58
2022-09-03T00:51:01.999Z,1.50
2022-09-03T00:53:40.883Z,1.40
2022-09-03T00:56:55.944Z,1.40
2022-09-03T00:59:25.736Z,1.40
2022-09-03T01:02:35.290Z,1.60
2022-09-03T01:05:19.172Z,1.40
2022-09-03T01:08:02.945Z,1.45
2022-09-03T01:10:31.829Z,1.45
2022-09-03T01:13:10.072Z,1.50
2022-09-03T01:16:15.184Z,1.42
2022-09-03T01:19:08.819Z,1.60
2022-09-03T01:21:38.575Z,1.77
2022-09-03T01:24:33.260Z,1.40
2022-09-03T01:27:06.206Z,1.52
2022-09-03T01:30:00.644Z,1.42
2022-09-03T01:32:51.967Z,1.42
2022-09-03T01:35:40.595Z,1.60
2022-09-03T01:38:33.221Z,1.40
2022-09-03T01:41:19.947Z,1.40
2022-09-03T01:44:22.279Z,1.30
2022-09-03T01:46:58.564Z,1.30
2022-09-03T01:49:45.146Z,1.38
2022-09-03T01:52:46.790Z,1.50
2022-09-03T01:55:30.453Z,1.33
2022-09-03T01:58:02.822Z,1.30
2022-09-03T02:00:33.383Z,1.48
2022-09-03T02:03:05.844Z,1.38
2022-09-03T02:05:32.781Z,1.50
2022-09-03T02:08:01.701Z,1.30
2022-09-03T02:10:56.702Z,1.42
2022-09-03T02:13:28.211Z,1.58
2022-09-03T02:16:00.120Z,1.70
2022-09-03T02:18:36.222Z,1.45
2022-09-03T02:21:03.481Z,1.60
2022-09-03T02:23:30.727Z,1.38
2022-09-03T02:26:01.322Z,1.20
2022-09-03T02:28:32.585Z,1.50
2022-09-03T02:30:59.589Z,1.42
2022-09-03T02:33:26.726Z,1.65
2022-09-03T02:35:54.404Z,1.50
2022-09-03T02:38:26.102Z,1.60
2022-09-03T02:40:56.298Z,1.63
2022-09-03T02:43:39.643Z,1.58
2022-09-03T02:46:13.082Z,1.63
2022-09-03T02:48:39.984Z,1.52
2022-09-03T02:51:13.845Z,1.50
2022-09-03T02:53:41.055Z,1.55
2022-09-03T02:56:07.879Z,1.70
2022-09-03T02:58:35.207Z,1.45
2022-09-03T03:01:02.335Z,1.30
2022-09-03T03:03:30.004Z,1.58
2022-09-03T03:06:00.534Z,1.50
2022-09-03T03:08:28.948Z,1.25
2022-09-03T03:10:58.862Z,1.63
2022-09-03T03:13:26.729Z,1.40
2022-09-03T03:16:00.643Z,1.60
2022-09-03T03:18:28.252Z,1.48
2022-09-03T03:20:55.403Z,1.40
2022-09-03T03:23:22.285Z,1.40
2022-09-03T03:25:49.183Z,1.30
2022-09-03T03:28:16.402Z,1.52
2022-09-03T03:30:43.324Z,1.40
2022-09-03T03:33:10.435Z,1.15
2022-09-03T03:35:37.558Z,1.30
2022-09-03T03:38:05.146Z,1.45
2022-09-03T03:40:32.099Z,1.30
2022-09-03T03:42:59.271Z,1.50
2022-09-03T03:45:26.270Z,1.50
2022-09-03T03:47:57.779Z,1.63
2022-09-03T03:50:26.004Z,1.40
2022-09-03T03:52:52.838Z,1.30
2022-09-03T03:55:19.686Z,1.40
2022-09-03T03:57:47.203Z,1.40
2022-09-03T04:00:15.132Z,1.60
2022-09-03T04:02:42.101Z,1.60
2022-09-03T04:05:09.490Z,1.40
2022-09-03T04:07:36.449Z,1.52
2022-09-03T04:10:03.608Z,1.50
2022-09-03T04:12:30.549Z,1.20
2022-09-03T04:14:57.421Z,1.45
2022-09-03T04:17:25.426Z,1.77
2022-09-03T04:19:52.516Z,1.23
2022-09-03T04:22:20.716Z,1.33
2022-09-03T04:24:47.630Z,1.50
2022-09-03T04:27:14.611Z,1.60
2022-09-03T04:29:41.726Z,1.60
2022-09-03T04:32:27.504Z,1.70
2022-09-03T04:34:54.524Z,1.35
2022-09-03T04:37:21.339Z,1.60
2022-09-03T04:39:48.344Z,1.73
2022-09-03T04:42:15.288Z,1.30
2022-09-03T04:44:42.219Z,1.90
2022-09-03T04:47:09.139Z,1.63
2022-09-03T04:49:36.088Z,1.77
2022-09-03T04:52:03.719Z,1.52
2022-09-03T04:54:31.572Z,1.63
2022-09-03T04:56:58.442Z,1.67
2022-09-03T04:59:25.486Z,1.75
2022-09-03T05:01:52.767Z,1.50
2022-09-03T05:04:19.918Z,1.55
2022-09-03T05:06:53.515Z,1.92
2022-09-03T05:09:20.392Z,1.80
2022-09-03T05:11:47.242Z,1.80
2022-09-03T05:14:14.355Z,1.67
2022-09-03T05:16:41.277Z,1.80
2022-09-03T05:19:08.376Z,1.63
2022-09-03T05:21:36.203Z,1.90
2022-09-03T05:24:04.009Z,1.50
2022-09-03T05:26:38.332Z,1.80
2022-09-03T05:29:09.875Z,1.70
2022-09-03T05:31:39.243Z,2.10
2022-09-03T05:34:06.812Z,1.80
2022-09-03T05:36:37.228Z,2.00
2022-09-03T05:39:05.801Z,1.98
2022-09-03T05:41:34.027Z,1.83
2022-09-03T05:44:01.189Z,2.03
2022-09-03T05:46:32.250Z,1.63
2022-09-03T05:49:05.258Z,1.70
2022-09-03T05:51:33.407Z,1.73
2022-09-03T05:54:00.343Z,1.98
2022-09-03T05:56:29.818Z,1.85
2022-09-03T05:59:01.132Z,1.90
2022-09-03T06:01:33.397Z,2.05
2022-09-03T06:04:21.662Z,2.08
2022-09-03T06:06:49.399Z,2.60
2022-09-03T06:09:23.584Z,2.13
2022-09-03T06:11:52.551Z,1.92
2022-09-03T06:14:20.200Z,2.13
2022-09-03T06:16:49.682Z,1.85
2022-09-03T06:19:17.369Z,1.90
2022-09-03T06:21:46.327Z,1.95
2022-09-03T06:24:16.158Z,2.10
2022-09-03T06:26:43.515Z,2.33
2022-09-03T06:29:11.765Z,2.05
2022-09-03T06:31:39.350Z,2.08
2022-09-03T06:34:08.721Z,1.95
2022-09-03T06:39:02.631Z,1.98
2022-09-03T06:41:35.310Z,2.13
2022-09-03T06:44:11.367Z,2.05
2022-09-03T06:46:42.276Z,2.15
2022-09-03T06:49:10.138Z,2.00
2022-09-03T06:51:38.878Z,2.00
2022-09-03T06:54:07.742Z,1.60
2022-09-03T06:56:39.798Z,1.80
2022-09-03T06:59:12.614Z,2.20
2022-09-03T07:01:43.979Z,1.90
2022-09-03T07:04:12.792Z,2.00
2022-09-03T07:06:42.038Z,2.10
2022-09-03T07:11:37.641Z,1.92
2022-09-03T07:14:05.182Z,2.20
2022-09-03T07:16:37.026Z,2.05
2022-09-03T07:19:06.021Z,2.40
2022-09-03T07:21:36.732Z,2.45
2022-09-03T07:24:05.736Z,2.30
2022-09-03T07:26:35.540Z,1.90
2022-09-03T07:29:02.615Z,2.10
2022-09-03T07:31:32.079Z,2.10
2022-09-03T07:34:10.169Z,2.10
2022-09-03T07:36:41.576Z,2.10
2022-09-03T07:39:09.525Z,1.90
2022-09-03T07:41:36.651Z,2.20
2022-09-03T07:44:07.204Z,1.90
2022-09-03T07:46:37.132Z,2.05
2022-09-03T07:49:06.400Z,1.98
2022-09-03T07:54:04.894Z,1.85
2022-09-03T07:56:31.865Z,2.17
2022-09-03T07:58:59.494Z,2.20
2022-09-03T08:01:28.781Z,2.10
2022-09-03T08:06:25.774Z,3.28
2022-09-03T08:09:04.244Z,2.13
2022-09-03T08:11:33.498Z,3.00
2022-09-03T08:14:03.026Z,2.47
2022-09-03T08:16:32.585Z,2.08
2022-09-03T08:18:59.938Z,2.17
2022-09-03T08:21:27.850Z,2.35
2022-09-03T08:24:02.546Z,2.30
2022-09-03T08:26:46.233Z,2.00
2022-09-03T08:29:17.934Z,1.98
2022-09-03T08:31:44.923Z,2.10
2022-09-03T08:34:13.193Z,1.95
2022-09-03T08:36:43.243Z,2.28
2022-09-03T08:39:11.467Z,1.77
2022-09-03T08:41:53.692Z,2.22
2022-09-03T08:44:40.552Z,1.83
2022-09-03T08:47:10.733Z,1.73
2022-09-03T08:49:46.526Z,1.63
2022-09-03T08:52:50.630Z,1.90
2022-09-03T08:55:36.568Z,2.13
2022-09-03T08:58:15.769Z,1.77
2022-09-03T09:00:45.479Z,1.90
2022-09-03T09:03:40.452Z,1.60
2022-09-03T09:06:15.009Z,2.15
2022-09-03T09:09:36.461Z,1.92
2022-09-03T09:12:12.236Z,1.70
2022-09-03T09:14:49.121Z,1.90
2022-09-03T09:17:32.629Z,1.70
2022-09-03T09:20:20.282Z,1.77
2022-09-03T09:23:07.405Z,1.80
2022-09-03T09:25:46.956Z,1.70
2022-09-03T09:28:34.555Z,1.60
2022-09-03T09:31:04.299Z,2.00
2022-09-03T09:33:32.595Z,1.70
2022-09-03T09:36:05.165Z,1.55
2022-09-03T09:38:38.023Z,1.98
2022-09-03T09:41:13.880Z,1.98
2022-09-03T09:43:41.704Z,1.75
2022-09-03T09:46:23.462Z,1.63
2022-09-03T09:48:56.612Z,1.90
2022-09-03T09:51:31.795Z,1.70
2022-09-03T09:54:12.366Z,1.90
2022-09-03T09:56:40.143Z,1.70
2022-09-03T09:59:09.431Z,1.92
2022-09-03T10:01:42.282Z,1.42
2022-09-03T10:04:21.792Z,1.52
2022-09-03T10:06:58.811Z,1.60
2022-09-03T10:09:31.843Z,2.05
2022-09-03T10:12:05.857Z,1.80
2022-09-03T10:14:45.476Z,1.58
2022-09-03T10:17:37.301Z,1.65
2022-09-03T10:20:30.987Z,2.05
2022-09-03T10:23:06.700Z,2.03
2022-09-03T10:25:52.005Z,1.67
2022-09-03T10:28:23.191Z,2.55
2022-09-03T10:31:24.262Z,3.47
2022-09-03T10:34:16.915Z,2.13
2022-09-03T10:37:07.512Z,1.80
2022-09-03T10:42:45.646Z,2.00
2022-09-03T10:45:30.008Z,1.80
2022-09-03T10:48:19.335Z,1.75
2022-09-03T10:50:56.896Z,1.80
2022-09-03T10:53:44.499Z,1.85
2022-09-03T10:56:22.471Z,1.98
2022-09-03T10:59:20.759Z,1.80
2022-09-03T11:02:36.120Z,1.70
2022-09-03T11:05:16.372Z,1.80
2022-09-03T11:07:51.966Z,1.70
2022-09-03T11:10:30.731Z,1.83
2022-09-03T11:13:07.808Z,1.80
2022-09-03T11:16:12.108Z,1.77
2022-09-03T11:18:55.142Z,1.60
2022-09-03T11:21:26.086Z,1.65
2022-09-03T11:24:16.224Z,1.70
2022-09-03T11:26:53.008Z,1.63
2022-09-03T11:29:38.149Z,1.50
2022-09-03T11:32:41.133Z,1.40
2022-09-03T11:35:25.356Z,1.50
2022-09-03T11:38:02.683Z,1.60
2022-09-03T11:40:35.740Z,1.55
2022-09-03T11:43:11.586Z,1.85
2022-09-03T11:45:39.920Z,1.55
2022-09-03T11:48:39.719Z,2.25
2022-09-03T11:51:30.657Z,1.77
2022-09-03T11:54:00.624Z,1.50
2022-09-03T11:56:29.213Z,1.65
2022-09-03T11:59:14.810Z,1.70
2022-09-03T12:01:56.824Z,1.60
2022-09-03T12:04:51.722Z,1.70
2022-09-03T12:07:39.176Z,1.50
2022-09-03T12:10:54.472Z,1.40
2022-09-03T12:13:21.254Z,1.50
2022-09-03T12:16:08.420Z,1.30
2022-09-03T12:18:37.109Z,1.50
2022-09-03T12:23:42.670Z,1.30
2022-09-03T12:26:15.171Z,1.40
2022-09-03T12:28:51.912Z,1.50
2022-09-03T12:31:25.566Z,1.40
2022-09-03T12:33:54.080Z,1.33
2022-09-03T12:36:24.397Z,1.40
2022-09-03T12:41:39.061Z,1.65
2022-09-03T12:44:08.823Z,1.45
2022-09-03T12:46:35.811Z,1.98
2022-09-03T12:52:06.754Z,1.40
2022-09-03T12:54:35.973Z,1.40
2022-09-03T12:57:03.406Z,1.13
2022-09-03T12:59:36.010Z,1.60
2022-09-03T13:02:13.481Z,1.50
2022-09-03T13:04:41.453Z,1.40
2022-09-03T13:07:20.344Z,1.50
2022-09-03T13:09:48.027Z,1.25
2022-09-03T13:12:51.150Z,1.30
2022-09-03T13:15:25.703Z,1.77
2022-09-03T13:18:09.727Z,1.40
2022-09-03T13:21:02.477Z,1.50
2022-09-03T13:23:36.858Z,1.30
2022-09-03T13:26:13.661Z,1.30
2022-09-03T13:28:46.314Z,1.50
2022-09-03T13:31:27.023Z,1.33
2022-09-03T13:34:14.355Z,1.25
2022-09-03T13:36:49.283Z,1.73
2022-09-03T13:39:35.393Z,1.48
2022-09-03T13:42:19.723Z,1.40
2022-09-03T13:44:58.969Z,1.50
2022-09-03T13:48:10.567Z,1.38
2022-09-03T13:50:59.084Z,1.45
2022-09-03T13:54:09.952Z,1.50
2022-09-03T13:56:47.975Z,1.50
2022-09-03T13:59:33.146Z,1.33
2022-09-03T14:02:40.131Z,1.45
2022-09-03T14:05:13.072Z,1.20
2022-09-03T14:07:55.382Z,1.50
2022-09-03T14:10:45.048Z,1.50
2022-09-03T14:13:40.147Z,1.30
2022-09-03T14:16:13.060Z,1.27
2022-09-03T14:18:54.925Z,1.45
2022-09-03T14:21:52.709Z,1.45
2022-09-03T14:24:41.262Z,1.48
2022-09-03T14:27:08.262Z,1.70
2022-09-03T14:29:36.884Z,1.48
2022-09-03T14:32:15.452Z,1.38
2022-09-03T14:35:19.909Z,1.17
2022-09-03T14:37:55.629Z,1.50
2022-09-03T14:40:28.434Z,1.50
2022-09-03T14:43:19.209Z,1.20
2022-09-03T14:46:40.505Z,1.35
2022-09-03T14:49:41.993Z,1.30
2022-09-03T14:52:53.513Z,1.10
2022-09-03T14:55:34.537Z,1.20
2022-09-03T14:58:10.154Z,1.95
2022-09-03T15:01:09.011Z,1.27
2022-09-03T15:04:13.043Z,1.50
2022-09-03T15:06:51.336Z,1.23
2022-09-03T15:09:40.254Z,1.35
2022-09-03T15:12:11.131Z,1.52
2022-09-03T15:14:55.464Z,1.60
2022-09-03T15:17:42.712Z,1.40
2022-09-03T15:21:00.290Z,1.40
2022-09-03T15:23:33.219Z,1.40
2022-09-03T15:26:14.400Z,1.30
2022-09-03T15:28:44.198Z,1.52
2022-09-03T15:31:24.202Z,1.40
2022-09-03T15:34:01.518Z,1.60
2022-09-03T15:36:37.386Z,1.60
2022-09-03T15:39:13.561Z,1.60
2022-09-03T15:41:47.415Z,1.85
2022-09-03T15:44:19.690Z,1.40
2022-09-03T15:47:13.877Z,1.75
2022-09-03T15:49:59.300Z,1.65
2022-09-03T15:53:06.629Z,1.60
2022-09-03T15:55:40.831Z,1.60
2022-09-03T15:58:23.740Z,1.27
2022-09-03T16:01:00.062Z,1.45
2022-09-03T16:03:46.801Z,1.75
2022-09-03T16:06:40.911Z,1.33
2022-09-03T16:10:23.265Z,1.45
2022-09-03T16:13:10.070Z,1.75
2022-09-03T16:18:12.365Z,1.65
2022-09-03T16:20:46.063Z,1.50
2022-09-03T16:23:19.501Z,1.75
2022-09-03T16:25:55.894Z,1.60
2022-09-03T16:28:35.208Z,1.50
2022-09-03T16:31:29.109Z,1.65
2022-09-03T16:34:16.704Z,1.40
2022-09-03T16:36:45.639Z,1.35
2022-09-03T16:39:39.057Z,1.60
2022-09-03T16:42:33.074Z,1.52
2022-09-03T16:45:20.361Z,1.73
2022-09-03T16:48:30.229Z,1.50
2022-09-03T16:51:16.032Z,1.60
2022-09-03T16:54:04.739Z,1.63
2022-09-03T16:57:12.697Z,1.95
2022-09-03T17:00:03.230Z,1.65
2022-09-03T17:03:04.269Z,1.40
2022-09-03T17:06:05.571Z,1.50
2022-09-03T17:08:52.423Z,1.75
2022-09-03T17:11:39.898Z,1.60
2022-09-03T17:14:25.048Z,1.80
2022-09-03T17:17:19.259Z,1.50
2022-09-03T17:19:59.863Z,1.90
2022-09-03T17:22:34.121Z,1.60
2022-09-03T17:25:08.817Z,1.80
2022-09-03T17:28:02.054Z,2.10
2022-09-03T17:30:56.380Z,1.70
2022-09-03T17:33:47.332Z,1.80
2022-09-03T17:36:19.361Z,1.92
2022-09-03T17:39:18.514Z,1.60
2022-09-03T17:41:56.083Z,1.92
2022-09-03T17:44:59.706Z,1.95
2022-09-03T17:48:00.932Z,1.60
2022-09-03T17:51:02.092Z,1.60
2022-09-03T17:53:40.488Z,1.73
2022-09-03T17:56:21.121Z,1.90
2022-09-03T17:59:03.217Z,1.60
2022-09-03T18:01:37.522Z,1.88
2022-09-03T18:04:46.618Z,2.10
2022-09-03T18:07:29.663Z,1.80
2022-09-03T18:10:21.851Z,1.95
2022-09-03T18:13:08.424Z,1.90
2022-09-03T18:16:05.474Z,1.77
2022-09-03T18:18:37.066Z,1.83
2022-09-03T18:21:31.903Z,1.88
2022-09-03T18:24:51.159Z,1.80
2022-09-03T18:27:46.732Z,1.85
2022-09-03T18:30:34.685Z,1.80
2022-09-03T18:33:20.517Z,1.80
2022-09-03T18:36:06.509Z,2.05
2022-09-03T18:38:57.716Z,1.80
2022-09-03T18:42:22.689Z,2.15
2022-09-03T18:45:23.261Z,2.00
2022-09-03T18:48:48.338Z,1.90
2022-09-03T18:51:53.687Z,2.03
2022-09-03T18:55:11.245Z,1.70
2022-09-03T18:58:00.191Z,1.85
2022-09-03T19:00:50.966Z,2.00
2022-09-03T19:04:05.000Z,2.20
2022-09-03T19:07:11.572Z,1.77
2022-09-03T19:10:21.087Z,2.20
2022-09-03T19:13:13.440Z,2.08
2022-09-03T19:16:28.539Z,1.90
2022-09-03T19:19:51.325Z,2.05
2022-09-03T19:22:52.516Z,2.10
2022-09-03T19:28:26.982Z,1.88
2022-09-03T19:31:28.224Z,1.70
2022-09-03T19:34:16.743Z,1.73
2022-09-03T19:37:25.620Z,2.10
2022-09-03T19:40:30.389Z,2.03
2022-09-03T19:43:18.808Z,2.20
2022-09-03T19:46:28.913Z,1.88
2022-09-03T19:49:39.680Z,2.00
2022-09-03T19:52:55.737Z,1.80
2022-09-03T19:55:45.534Z,2.10
2022-09-03T19:58:43.188Z,2.33
2022-09-03T20:01:30.337Z,2.33
2022-09-03T20:04:18.868Z,1.90
2022-09-03T20:07:04.802Z,2.28
2022-09-03T20:09:55.820Z,2.00
2022-09-03T20:12:26.754Z,2.08
2022-09-03T20:14:53.862Z,2.58
2022-09-03T20:17:26.761Z,2.10
2022-09-03T20:20:18.296Z,2.00
2022-09-03T20:23:29.968Z,1.83
2022-09-03T20:26:11.812Z,1.95
2022-09-03T20:29:00.523Z,1.80
2022-09-03T20:32:06.055Z,2.00
2022-09-03T20:34:57.802Z,1.95
2022-09-03T20:37:50.680Z,2.05
2022-09-03T20:40:38.369Z,1.90
2022-09-03T20:43:24.091Z,2.00
2022-09-03T20:46:06.448Z,2.08
2022-09-03T20:49:03.651Z,2.00
2022-09-03T20:51:41.949Z,2.10
2022-09-03T20:54:33.709Z,2.03
2022-09-03T20:57:14.452Z,1.90
2022-09-03T20:59:50.196Z,1.88
2022-09-03T21:03:00.365Z,1.80
2022-09-03T21:05:31.236Z,2.20
2022-09-03T21:08:16.766Z,2.10
2022-09-03T21:11:06.377Z,2.00
2022-09-03T21:13:45.377Z,2.10
2022-09-03T21:16:36.500Z,1.83
2022-09-03T21:19:15.248Z,1.92
2022-09-03T21:22:07.628Z,2.20
2022-09-03T21:24:44.552Z,2.10
2022-09-03T21:27:20.888Z,2.08
2022-09-03T21:30:02.183Z,1.90
2022-09-03T21:32:51.815Z,2.00
2022-09-03T21:35:32.829Z,2.20
2022-09-03T21:38:08.880Z,1.83
2022-09-03T21:40:39.401Z,2.53
2022-09-03T21:43:06.292Z,2.40
2022-09-03T21:46:03.640Z,2.30
2022-09-03T21:48:43.160Z,2.20
2022-09-03T21:51:21.870Z,1.95
2022-09-03T21:54:12.915Z,2.20
2022-09-03T21:56:45.795Z,1.83
2022-09-03T21:59:34.408Z,2.10
2022-09-03T22:02:21.881Z,2.08
2022-09-03T22:04:50.098Z,2.00
2022-09-03T22:07:41.188Z,1.97
2022-09-03T22:10:39.322Z,2.00
2022-09-03T22:13:48.495Z,1.90
2022-09-03T22:16:18.109Z,2.00
2022-09-03T22:18:45.047Z,1.90
2022-09-03T22:21:59.609Z,1.88
2022-09-03T22:24:47.974Z,2.00
2022-09-03T22:27:18.540Z,1.90
2022-09-03T22:30:20.105Z,1.70
2022-09-03T22:33:06.727Z,2.10
2022-09-03T22:36:07.733Z,1.90
2022-09-03T22:38:39.765Z,2.00
2022-09-03T22:41:34.833Z,2.17
2022-09-03T22:44:47.162Z,2.20
2022-09-03T22:47:14.006Z,2.13
2022-09-03T22:50:10.682Z,1.83
2022-09-03T22:52:44.659Z,2.00
2022-09-03T22:55:23.350Z,2.08
2022-09-03T22:58:05.206Z,1.90
2022-09-03T23:00:45.445Z,2.17
2022-09-03T23:03:27.035Z,1.90
2022-09-03T23:06:04.769Z,2.20
2022-09-03T23:08:41.283Z,1.90
2022-09-03T23:11:34.563Z,2.00
2022-09-03T23:14:09.706Z,2.13
2022-09-03T23:17:05.494Z,2.40
2022-09-03T23:19:40.962Z,2.13
2022-09-03T23:22:23.290Z,2.20
2022-09-03T23:25:01.969Z,2.10
2022-09-03T23:27:41.836Z,2.17
2022-09-03T23:30:09.083Z,1.80
2022-09-03T23:32:36.118Z,1.92
2022-09-03T23:35:10.204Z,2.00
2022-09-03T23:37:44.599Z,2.10
2022-09-03T23:40:26.763Z,2.25
2022-09-03T23:43:08.584Z,2.38
2022-09-03T23:45:47.197Z,2.30
2022-09-03T23:48:42.180Z,1.90
2022-09-03T23:51:18.082Z,2.10
2022-09-03T23:54:21.755Z,2.60
2022-09-03T23:57:17.296Z,2.40
